Nabolsi 1 — HP3264 — position and weather

sailwx.info

Track history (hours):
 
Tides and Currents Weather Stations Pressure Air Temp Water Temp Dewpoint Dewpoint Depression Visibility Wind Speed Wind Dir Waves Ship Positions

Nabolsi 1

Last reported at 2017-Dec-09 06:50 UTC. Time now 2017-Dec-12 13:58 UTC.
Position N 44°29' E 013°04'.

Length 75 m; draft 3.7 m.

Type: Cargo ship. MMSI: 357933000.

Date/timePositionNaut miles runAvg speedWind from/ knotsBaromVisibWave heightAir tempDewpointWater temp
2017-Dec-09 06:50N 44°29' E 013°04'710.2
2017-Dec-09 06:07N 44°36' E 013°01'110.2
2017-Dec-09 06:00N 44°37' E 013°01'610.8
2017-Dec-09 05:28N 44°42' E 012°58'510.7
2017-Dec-09 05:00N 44°47' E 012°57'510.7
2017-Dec-09 04:30N 44°52' E 012°58'510.8
2017-Dec-09 04:00N 44°58' E 012°60'510.7
2017-Dec-09 03:30N 45°03' E 013°01'510.8
2017-Dec-09 03:00N 45°08' E 013°00'510.7
2017-Dec-09 02:30N 45°14' E 013°00'510.7
2017-Dec-09 02:00N 45°19' E 012°60'510.4
2017-Dec-09 01:30N 45°24' E 012°60'5 9.9
2017-Dec-09 01:00N 45°28' E 013°05'510.1
2017-Dec-09 00:30N 45°30' E 013°11'5 9.9
2017-Dec-09 00:00N 45°33' E 013°17'510.0
2017-Dec-08 23:30N 45°35' E 013°23'510.1
2017-Dec-08 23:00N 45°38' E 013°30'5 9.3
2017-Dec-08 22:30N 45°37' E 013°37'5 9.6
2017-Dec-08 22:00N 45°34' E 013°42'2 4.0
2017-Dec-08 21:29N 45°34' E 013°45'0 0.0
2017-Dec-08 20:56N 45°34' E 013°45'0 0.0
2017-Dec-08 20:26N 45°34' E 013°45'0 0.0
2017-Dec-08 19:56N 45°34' E 013°45'0 0.0
2017-Dec-08 19:20N 45°34' E 013°45'0 0.0
2017-Dec-08 18:56N 45°34' E 013°45'0 0.0
2017-Dec-08 18:26N 45°34' E 013°45'0 0.0
2017-Dec-08 17:56N 45°34' E 013°45'0 0.0
2017-Dec-08 17:26N 45°34' E 013°45'0 0.0
2017-Dec-08 16:50N 45°34' E 013°45'0 0.0
2017-Dec-08 16:20N 45°34' E 013°45'0 0.0
2017-Dec-08 15:47N 45°34' E 013°45'0 0.0
2017-Dec-08 15:26N 45°34' E 013°45'0 0.0
2017-Dec-08 14:56N 45°34' E 013°45'0 0.0
2017-Dec-08 14:26N 45°34' E 013°45'0 0.0
2017-Dec-08 13:56N 45°34' E 013°45'0 0.0
2017-Dec-08 13:25N 45°34' E 013°45'0 0.0
2017-Dec-08 12:43N 45°34' E 013°45'0 0.0
2017-Dec-08 12:25N 45°34' E 013°45'0 0.0
2017-Dec-08 11:55N 45°34' E 013°45'0 0.0
2017-Dec-08 11:19N 45°34' E 013°45'0 0.0
2017-Dec-08 10:49N 45°34' E 013°45'0 0.0
2017-Dec-08 10:19N 45°34' E 013°45'0 0.0
2017-Dec-08 09:55N 45°34' E 013°45'0 0.0
2017-Dec-08 09:19N 45°34' E 013°45'0 0.0
2017-Dec-08 08:49N 45°34' E 013°45'0 0.0
2017-Dec-08 08:22N 45°34' E 013°45'0 0.0
2017-Dec-08 07:55N 45°34' E 013°45'0 0.0
2017-Dec-08 07:25N 45°34' E 013°45'0 0.0
2017-Dec-08 06:55N 45°34' E 013°45'0 0.0
2017-Dec-08 06:19N 45°34' E 013°45'0 0.0
2017-Dec-08 05:55N 45°34' E 013°45'0 0.0
2017-Dec-08 05:25N 45°34' E 013°45'0 0.0
2017-Dec-08 04:43N 45°34' E 013°45'0 0.0
2017-Dec-08 04:25N 45°34' E 013°45'0 0.0
2017-Dec-08 03:58N 45°34' E 013°45'0 0.0
2017-Dec-08 03:25N 45°34' E 013°45'0 0.0
2017-Dec-08 02:55N 45°34' E 013°45'0 0.0
2017-Dec-08 02:25N 45°34' E 013°45'0 0.0
2017-Dec-08 01:31N 45°34' E 013°45'0 0.0
2017-Dec-08 01:25N 45°34' E 013°45'0 0.0
2017-Dec-08 00:55N 45°34' E 013°45'0 0.0
2017-Dec-08 00:25N 45°34' E 013°45'0 0.0
2017-Dec-07 23:55N 45°34' E 013°45'0 0.0
2017-Dec-07 23:13N 45°34' E 013°45'0 0.0
2017-Dec-07 22:55N 45°34' E 013°45'0 0.0
2017-Dec-07 22:25N 45°34' E 013°45'0 0.0
2017-Dec-07 21:49N 45°34' E 013°45'0 0.0
2017-Dec-07 21:28N 45°34' E 013°45'0 0.0
2017-Dec-07 20:49N 45°34' E 013°45'0 0.0
2017-Dec-07 20:22N 45°34' E 013°45'0 0.0
2017-Dec-07 19:55N 45°34' E 013°45'0 0.0
2017-Dec-07 19:19N 45°34' E 013°45'0 0.0
2017-Dec-07 18:58N 45°34' E 013°45'0 0.0
2017-Dec-07 18:25N 45°34' E 013°45'0 0.0
2017-Dec-07 17:58N 45°34' E 013°45'0 0.0
2017-Dec-07 16:43N 45°34' E 013°45'0 0.0
2017-Dec-07 16:28N 45°33' E 013°45'0 0.0
2017-Dec-07 15:55N 45°34' E 013°45'0 0.0
2017-Dec-07 15:22N 45°34' E 013°45'0 0.0
2017-Dec-07 14:55N 45°34' E 013°45'0 0.0
2017-Dec-07 14:25N 45°34' E 013°45'0 0.0
2017-Dec-07 13:55N 45°34' E 013°45'0 1.1
2017-Dec-07 13:30N 45°33' E 013°44'1 2.5
2017-Dec-07 13:00N 45°34' E 013°43'0 0.0
2017-Dec-07 12:24N 45°34' E 013°43'0 0.2
2017-Dec-07 11:54N 45°35' E 013°43'0 0.0
2017-Dec-07 11:30N 45°35' E 013°43'0 0.0
2017-Dec-07 10:48N 45°35' E 013°43'0 0.0
2017-Dec-07 10:27N 45°35' E 013°43'0 0.0
2017-Dec-07 10:00N 45°35' E 013°43'0 0.0
2017-Dec-07 09:30N 45°35' E 013°43'0 0.0
2017-Dec-07 09:00N 45°34' E 013°43'0 0.0
2017-Dec-07 08:18N 45°34' E 013°43'0 0.0
2017-Dec-07 08:00N 45°34' E 013°43'0 0.0
2017-Dec-07 07:30N 45°34' E 013°43'0 0.0
2017-Dec-07 07:00N 45°34' E 013°43'0 0.0
2017-Dec-07 06:30N 45°34' E 013°43'0 0.0
2017-Dec-07 06:00N 45°34' E 013°43'0 0.0
2017-Dec-07 05:30N 45°34' E 013°43'0 0.0
2017-Dec-07 04:18N 45°34' E 013°43'0 0.0
2017-Dec-07 04:00N 45°34' E 013°43'0 0.0
2017-Dec-07 03:12N 45°34' E 013°43'0 0.0
2017-Dec-07 02:57N 45°34' E 013°43'0 0.0
2017-Dec-07 02:24N 45°34' E 013°43'0 0.0
2017-Dec-07 02:00N 45°34' E 013°43'0 0.0
2017-Dec-07 01:30N 45°34' E 013°43'0 0.0
2017-Dec-07 01:00N 45°34' E 013°43'0 0.0
2017-Dec-07 00:27N 45°34' E 013°43'0 0.0
2017-Dec-07 00:00N 45°34' E 013°43'0 0.0
2017-Dec-06 23:27N 45°34' E 013°43'0 0.0
2017-Dec-06 22:54N 45°34' E 013°43'0 0.0
2017-Dec-06 22:30N 45°34' E 013°43'0 0.0
2017-Dec-06 22:00N 45°34' E 013°43'0 0.0
2017-Dec-06 21:12N 45°34' E 013°43'0 0.0
2017-Dec-06 21:00N 45°34' E 013°43'  
2017-Dec-04 10:22N 45°35' E 013°43'0 0.0
2017-Dec-04 09:58N 45°35' E 013°43'0 0.0
2017-Dec-04 09:25N 45°34' E 013°43'0 0.0
2017-Dec-04 08:58N 45°34' E 013°43'0 0.0
2017-Dec-04 08:28N 45°34' E 013°43'0 0.0
2017-Dec-04 07:58N 45°34' E 013°43'0 0.0
2017-Dec-04 07:28N 45°34' E 013°43'0 0.0
2017-Dec-04 06:58N 45°34' E 013°43'0 0.0
2017-Dec-04 06:29N 45°35' E 013°43'1 1.6
2017-Dec-04 06:00N 45°35' E 013°42'2 4.9
2017-Dec-04 05:30N 45°35' E 013°38'510.5
2017-Dec-04 05:00N 45°34' E 013°31'510.5
2017-Dec-04 04:30N 45°32' E 013°24'510.2
2017-Dec-04 04:00N 45°28' E 013°19'510.3
2017-Dec-04 03:30N 45°25' E 013°13'5 9.7
2017-Dec-04 03:00N 45°20' E 013°14'510.4
2017-Dec-04 02:30N 45°15' E 013°16'510.1
2017-Dec-04 02:00N 45°11' E 013°19'510.2
2017-Dec-04 01:30N 45°07' E 013°24'510.0
2017-Dec-04 01:00N 45°03' E 013°28'510.1
2017-Dec-04 00:30N 44°58' E 013°31'510.1
2017-Dec-04 00:00N 44°54' E 013°35'5 9.9
2017-Dec-03 23:30N 44°50' E 013°39'5 9.8
2017-Dec-03 23:00N 44°45' E 013°42'5 9.8
2017-Dec-03 22:30N 44°41' E 013°46'510.0
2017-Dec-03 22:00N 44°38' E 013°51'5 9.9
2017-Dec-03 21:30N 44°35' E 013°57'510.0
2017-Dec-03 21:00N 44°32' E 014°03'510.1
2017-Dec-03 20:30N 44°30' E 014°09'  
Track history (hours):
 
Tides and Currents Weather Stations Pressure Air Temp Water Temp Dewpoint Dewpoint Depression Visibility Wind Speed Wind Dir Waves Ship Positions

Nabolsi 1

Last reported at 2017-Dec-09 06:50 UTC. Time now 2017-Dec-12 13:58 UTC.
Position N 44°29' E 013°04'.

Length 75 m; draft 3.7 m.

Type: Cargo ship. MMSI: 357933000.

Date/timePositionNaut miles runAvg speedWind from/ knotsBaromVisibWave heightAir tempDewpointWater temp
2017-Dec-09 06:50N 44°29' E 013°04'710.2
2017-Dec-09 06:07N 44°36' E 013°01'110.2
2017-Dec-09 06:00N 44°37' E 013°01'610.8
2017-Dec-09 05:28N 44°42' E 012°58'510.7
2017-Dec-09 05:00N 44°47' E 012°57'510.7
2017-Dec-09 04:30N 44°52' E 012°58'510.8
2017-Dec-09 04:00N 44°58' E 012°60'510.7
2017-Dec-09 03:30N 45°03' E 013°01'510.8
2017-Dec-09 03:00N 45°08' E 013°00'510.7
2017-Dec-09 02:30N 45°14' E 013°00'510.7
2017-Dec-09 02:00N 45°19' E 012°60'510.4
2017-Dec-09 01:30N 45°24' E 012°60'5 9.9
2017-Dec-09 01:00N 45°28' E 013°05'510.1
2017-Dec-09 00:30N 45°30' E 013°11'5 9.9
2017-Dec-09 00:00N 45°33' E 013°17'510.0
2017-Dec-08 23:30N 45°35' E 013°23'510.1
2017-Dec-08 23:00N 45°38' E 013°30'5 9.3
2017-Dec-08 22:30N 45°37' E 013°37'5 9.6
2017-Dec-08 22:00N 45°34' E 013°42'2 4.0
2017-Dec-08 21:29N 45°34' E 013°45'0 0.0
2017-Dec-08 20:56N 45°34' E 013°45'0 0.0
2017-Dec-08 20:26N 45°34' E 013°45'0 0.0
2017-Dec-08 19:56N 45°34' E 013°45'0 0.0
2017-Dec-08 19:20N 45°34' E 013°45'0 0.0
2017-Dec-08 18:56N 45°34' E 013°45'0 0.0
2017-Dec-08 18:26N 45°34' E 013°45'0 0.0
2017-Dec-08 17:56N 45°34' E 013°45'0 0.0
2017-Dec-08 17:26N 45°34' E 013°45'0 0.0
2017-Dec-08 16:50N 45°34' E 013°45'0 0.0
2017-Dec-08 16:20N 45°34' E 013°45'0 0.0
2017-Dec-08 15:47N 45°34' E 013°45'0 0.0
2017-Dec-08 15:26N 45°34' E 013°45'0 0.0
2017-Dec-08 14:56N 45°34' E 013°45'0 0.0
2017-Dec-08 14:26N 45°34' E 013°45'0 0.0
2017-Dec-08 13:56N 45°34' E 013°45'0 0.0
2017-Dec-08 13:25N 45°34' E 013°45'0 0.0
2017-Dec-08 12:43N 45°34' E 013°45'0 0.0
2017-Dec-08 12:25N 45°34' E 013°45'0 0.0
2017-Dec-08 11:55N 45°34' E 013°45'0 0.0
2017-Dec-08 11:19N 45°34' E 013°45'0 0.0
2017-Dec-08 10:49N 45°34' E 013°45'0 0.0
2017-Dec-08 10:19N 45°34' E 013°45'0 0.0
2017-Dec-08 09:55N 45°34' E 013°45'0 0.0
2017-Dec-08 09:19N 45°34' E 013°45'0 0.0
2017-Dec-08 08:49N 45°34' E 013°45'0 0.0
2017-Dec-08 08:22N 45°34' E 013°45'0 0.0
2017-Dec-08 07:55N 45°34' E 013°45'0 0.0
2017-Dec-08 07:25N 45°34' E 013°45'0 0.0
2017-Dec-08 06:55N 45°34' E 013°45'0 0.0
2017-Dec-08 06:19N 45°34' E 013°45'0 0.0
2017-Dec-08 05:55N 45°34' E 013°45'0 0.0
2017-Dec-08 05:25N 45°34' E 013°45'0 0.0
2017-Dec-08 04:43N 45°34' E 013°45'0 0.0
2017-Dec-08 04:25N 45°34' E 013°45'0 0.0
2017-Dec-08 03:58N 45°34' E 013°45'0 0.0
2017-Dec-08 03:25N 45°34' E 013°45'0 0.0
2017-Dec-08 02:55N 45°34' E 013°45'0 0.0
2017-Dec-08 02:25N 45°34' E 013°45'0 0.0
2017-Dec-08 01:31N 45°34' E 013°45'0 0.0
2017-Dec-08 01:25N 45°34' E 013°45'0 0.0
2017-Dec-08 00:55N 45°34' E 013°45'0 0.0
2017-Dec-08 00:25N 45°34' E 013°45'0 0.0
2017-Dec-07 23:55N 45°34' E 013°45'0 0.0
2017-Dec-07 23:13N 45°34' E 013°45'0 0.0
2017-Dec-07 22:55N 45°34' E 013°45'0 0.0
2017-Dec-07 22:25N 45°34' E 013°45'0 0.0
2017-Dec-07 21:49N 45°34' E 013°45'0 0.0
2017-Dec-07 21:28N 45°34' E 013°45'0 0.0
2017-Dec-07 20:49N 45°34' E 013°45'0 0.0
2017-Dec-07 20:22N 45°34' E 013°45'0 0.0
2017-Dec-07 19:55N 45°34' E 013°45'0 0.0
2017-Dec-07 19:19N 45°34' E 013°45'0 0.0
2017-Dec-07 18:58N 45°34' E 013°45'0 0.0
2017-Dec-07 18:25N 45°34' E 013°45'0 0.0
2017-Dec-07 17:58N 45°34' E 013°45'0 0.0
2017-Dec-07 16:43N 45°34' E 013°45'0 0.0
2017-Dec-07 16:28N 45°33' E 013°45'0 0.0
2017-Dec-07 15:55N 45°34' E 013°45'0 0.0
2017-Dec-07 15:22N 45°34' E 013°45'0 0.0
2017-Dec-07 14:55N 45°34' E 013°45'0 0.0
2017-Dec-07 14:25N 45°34' E 013°45'0 0.0
2017-Dec-07 13:55N 45°34' E 013°45'0 1.1
2017-Dec-07 13:30N 45°33' E 013°44'1 2.5
2017-Dec-07 13:00N 45°34' E 013°43'0 0.0
2017-Dec-07 12:24N 45°34' E 013°43'0 0.2
2017-Dec-07 11:54N 45°35' E 013°43'0 0.0
2017-Dec-07 11:30N 45°35' E 013°43'0 0.0
2017-Dec-07 10:48N 45°35' E 013°43'0 0.0
2017-Dec-07 10:27N 45°35' E 013°43'0 0.0
2017-Dec-07 10:00N 45°35' E 013°43'0 0.0
2017-Dec-07 09:30N 45°35' E 013°43'0 0.0
2017-Dec-07 09:00N 45°34' E 013°43'0 0.0
2017-Dec-07 08:18N 45°34' E 013°43'0 0.0
2017-Dec-07 08:00N 45°34' E 013°43'0 0.0
2017-Dec-07 07:30N 45°34' E 013°43'0 0.0
2017-Dec-07 07:00N 45°34' E 013°43'0 0.0
2017-Dec-07 06:30N 45°34' E 013°43'0 0.0
2017-Dec-07 06:00N 45°34' E 013°43'0 0.0
2017-Dec-07 05:30N 45°34' E 013°43'0 0.0
2017-Dec-07 04:18N 45°34' E 013°43'0 0.0
2017-Dec-07 04:00N 45°34' E 013°43'0 0.0
2017-Dec-07 03:12N 45°34' E 013°43'0 0.0
2017-Dec-07 02:57N 45°34' E 013°43'0 0.0
2017-Dec-07 02:24N 45°34' E 013°43'0 0.0
2017-Dec-07 02:00N 45°34' E 013°43'0 0.0
2017-Dec-07 01:30N 45°34' E 013°43'0 0.0
2017-Dec-07 01:00N 45°34' E 013°43'0 0.0
2017-Dec-07 00:27N 45°34' E 013°43'0 0.0
2017-Dec-07 00:00N 45°34' E 013°43'0 0.0
2017-Dec-06 23:27N 45°34' E 013°43'0 0.0
2017-Dec-06 22:54N 45°34' E 013°43'0 0.0
2017-Dec-06 22:30N 45°34' E 013°43'0 0.0
2017-Dec-06 22:00N 45°34' E 013°43'0 0.0
2017-Dec-06 21:12N 45°34' E 013°43'0 0.0
2017-Dec-06 21:00N 45°34' E 013°43'  
2017-Dec-04 10:22N 45°35' E 013°43'0 0.0
2017-Dec-04 09:58N 45°35' E 013°43'0 0.0
2017-Dec-04 09:25N 45°34' E 013°43'0 0.0
2017-Dec-04 08:58N 45°34' E 013°43'0 0.0
2017-Dec-04 08:28N 45°34' E 013°43'0 0.0
2017-Dec-04 07:58N 45°34' E 013°43'0 0.0
2017-Dec-04 07:28N 45°34' E 013°43'0 0.0
2017-Dec-04 06:58N 45°34' E 013°43'0 0.0
2017-Dec-04 06:29N 45°35' E 013°43'1 1.6
2017-Dec-04 06:00N 45°35' E 013°42'2 4.9
2017-Dec-04 05:30N 45°35' E 013°38'510.5
2017-Dec-04 05:00N 45°34' E 013°31'510.5
2017-Dec-04 04:30N 45°32' E 013°24'510.2
2017-Dec-04 04:00N 45°28' E 013°19'510.3
2017-Dec-04 03:30N 45°25' E 013°13'5 9.7
2017-Dec-04 03:00N 45°20' E 013°14'510.4
2017-Dec-04 02:30N 45°15' E 013°16'510.1
2017-Dec-04 02:00N 45°11' E 013°19'510.2
2017-Dec-04 01:30N 45°07' E 013°24'510.0
2017-Dec-04 01:00N 45°03' E 013°28'510.1
2017-Dec-04 00:30N 44°58' E 013°31'510.1
2017-Dec-04 00:00N 44°54' E 013°35'5 9.9
2017-Dec-03 23:30N 44°50' E 013°39'5 9.8
2017-Dec-03 23:00N 44°45' E 013°42'5 9.8
2017-Dec-03 22:30N 44°41' E 013°46'510.0
2017-Dec-03 22:00N 44°38' E 013°51'5 9.9
2017-Dec-03 21:30N 44°35' E 013°57'510.0
2017-Dec-03 21:00N 44°32' E 014°03'510.1
2017-Dec-03 20:30N 44°30' E 014°09'  

Dump ship's entire track history